createdAt,value
2023-01-29T00:00:16.964Z,19.27
2023-01-29T00:02:47.854Z,16.25
2023-01-29T00:05:28.015Z,18.33
2023-01-29T00:07:57.502Z,15.15
2023-01-29T00:10:27.437Z,17.77
2023-01-29T00:12:56.004Z,17.17
2023-01-29T00:15:25.234Z,18.67
2023-01-29T00:17:54.825Z,17.80
2023-01-29T00:20:23.276Z,20.33
2023-01-29T00:22:51.394Z,21.65
2023-01-29T00:25:19.656Z,21.52
2023-01-29T00:27:47.934Z,19.58
2023-01-29T00:30:19.799Z,16.60
2023-01-29T00:32:48.375Z,22.65
2023-01-29T00:35:18.102Z,17.75
2023-01-29T00:37:46.144Z,23.75
2023-01-29T00:40:15.043Z,18.80
2023-01-29T00:43:03.343Z,21.70
2023-01-29T00:45:31.577Z,21.10
2023-01-29T00:48:00.908Z,24.13
2023-01-29T00:50:33.421Z,23.17
2023-01-29T00:53:01.732Z,29.75
2023-01-29T00:55:29.784Z,22.80
2023-01-29T00:58:00.101Z,22.33
2023-01-29T01:00:28.119Z,24.83
2023-01-29T01:03:07.500Z,26.02
2023-01-29T01:05:39.110Z,27.73
2023-01-29T01:08:28.650Z,26.52
2023-01-29T01:11:00.179Z,25.25
2023-01-29T01:13:28.311Z,24.55
2023-01-29T01:15:56.530Z,26.05
2023-01-29T01:18:24.843Z,22.00
2023-01-29T01:20:58.957Z,26.65
2023-01-29T01:23:28.008Z,26.52
2023-01-29T01:25:56.400Z,23.50
2023-01-29T01:28:30.150Z,25.20
2023-01-29T01:30:59.497Z,26.35
2023-01-29T01:33:27.627Z,25.50
2023-01-29T01:35:56.993Z,26.58
2023-01-29T01:38:26.539Z,25.60
2023-01-29T01:40:54.502Z,25.52
2023-01-29T01:43:22.866Z,32.92
2023-01-29T01:45:51.055Z,29.23
2023-01-29T01:48:21.232Z,30.02
2023-01-29T01:50:52.084Z,26.40
2023-01-29T01:53:24.105Z,25.35
2023-01-29T01:55:55.128Z,27.38
2023-01-29T01:58:25.732Z,30.67
2023-01-29T02:00:54.817Z,26.58
2023-01-29T02:03:41.573Z,24.20
2023-01-29T02:06:28.541Z,28.88
2023-01-29T02:09:19.201Z,26.80
2023-01-29T02:11:48.322Z,31.08
2023-01-29T02:14:16.967Z,26.15
2023-01-29T02:16:46.611Z,24.20
2023-01-29T02:19:21.009Z,25.90
2023-01-29T02:22:10.421Z,27.17
2023-01-29T02:25:09.869Z,23.80
2023-01-29T02:28:12.528Z,24.55
2023-01-29T02:30:46.148Z,24.25
2023-01-29T02:33:22.559Z,26.42
2023-01-29T02:35:57.088Z,28.95
2023-01-29T02:38:31.308Z,23.95
2023-01-29T02:41:03.324Z,29.27
2023-01-29T02:43:35.457Z,24.75
2023-01-29T02:46:11.113Z,29.13
2023-01-29T02:48:43.601Z,28.15
2023-01-29T02:51:18.788Z,25.50
2023-01-29T02:53:54.929Z,25.30
2023-01-29T02:56:25.577Z,26.58
2023-01-29T02:58:58.284Z,27.05
2023-01-29T03:01:32.058Z,24.88
2023-01-29T03:04:05.001Z,25.55
2023-01-29T03:06:36.230Z,24.38
2023-01-29T03:09:07.064Z,27.03
2023-01-29T03:11:42.054Z,27.77
2023-01-29T03:14:13.419Z,27.33
2023-01-29T03:16:47.901Z,31.92
2023-01-29T03:19:20.202Z,30.55
2023-01-29T03:21:51.666Z,30.73
2023-01-29T03:24:39.530Z,25.52
2023-01-29T03:27:28.196Z,29.13
2023-01-29T03:30:15.543Z,26.83
2023-01-29T03:32:46.477Z,28.75
2023-01-29T03:35:21.024Z,32.38
2023-01-29T03:37:50.159Z,35.97
2023-01-29T03:40:18.767Z,31.60
2023-01-29T03:42:55.113Z,30.73
2023-01-29T03:45:28.342Z,30.55
2023-01-29T03:48:08.679Z,30.58
2023-01-29T03:50:41.695Z,26.38
2023-01-29T03:53:19.628Z,31.40
2023-01-29T03:55:55.392Z,27.08
2023-01-29T03:58:27.355Z,32.45
2023-01-29T04:00:57.314Z,29.42
2023-01-29T04:03:33.378Z,31.73
2023-01-29T04:06:09.707Z,28.48
2023-01-29T04:08:42.048Z,29.83
2023-01-29T04:11:15.350Z,29.80
2023-01-29T04:13:44.772Z,30.95
2023-01-29T04:16:17.183Z,32.05
2023-01-29T04:18:48.368Z,26.15
2023-01-29T04:21:17.006Z,32.10
2023-01-29T04:23:45.379Z,33.03
2023-01-29T04:26:34.411Z,31.58
2023-01-29T04:29:17.369Z,33.58
2023-01-29T04:31:51.638Z,30.95
2023-01-29T04:34:25.318Z,33.88
2023-01-29T04:37:02.599Z,30.65
2023-01-29T04:39:37.269Z,34.72
2023-01-29T04:42:13.049Z,35.30
2023-01-29T04:44:45.915Z,32.95
2023-01-29T04:47:19.972Z,31.20
2023-01-29T04:49:56.618Z,37.58
2023-01-29T04:52:33.746Z,35.88
2023-01-29T04:55:07.786Z,31.30
2023-01-29T04:57:43.519Z,34.45
2023-01-29T05:00:16.707Z,35.13
2023-01-29T05:02:46.553Z,36.70
2023-01-29T05:05:17.685Z,36.13
2023-01-29T05:07:47.194Z,36.88
2023-01-29T05:10:17.455Z,39.05
2023-01-29T05:12:51.237Z,33.97
2023-01-29T05:15:24.864Z,37.25
2023-01-29T05:17:56.444Z,39.00
2023-01-29T05:20:28.394Z,37.45
2023-01-29T05:22:56.867Z,39.63
2023-01-29T05:25:26.247Z,42.42
2023-01-29T05:28:06.367Z,44.33
2023-01-29T05:30:36.696Z,42.35
2023-01-29T05:33:06.159Z,45.35
2023-01-29T05:35:36.759Z,41.05
2023-01-29T05:38:04.873Z,42.85
2023-01-29T05:40:32.952Z,42.50
2023-01-29T05:43:01.156Z,42.63
2023-01-29T05:45:29.298Z,45.00
2023-01-29T05:47:59.545Z,41.55
2023-01-29T05:50:28.489Z,47.83
2023-01-29T05:53:02.313Z,41.80
2023-01-29T05:55:30.697Z,45.63
2023-01-29T05:57:58.915Z,47.65
2023-01-29T06:00:28.175Z,43.85
2023-01-29T06:02:56.693Z,46.10
2023-01-29T06:05:25.228Z,43.22
2023-01-29T06:07:55.024Z,43.42
2023-01-29T06:10:24.940Z,45.83
2023-01-29T06:12:54.289Z,44.80
2023-01-29T06:15:22.804Z,43.97
2023-01-29T06:17:52.456Z,48.45
2023-01-29T06:20:20.771Z,49.63
2023-01-29T06:22:48.761Z,45.75
2023-01-29T06:25:17.262Z,52.08
2023-01-29T06:27:47.345Z,51.58
2023-01-29T06:30:16.861Z,56.92
2023-01-29T06:32:45.455Z,50.00
2023-01-29T06:35:13.469Z,49.63
2023-01-29T06:37:42.265Z,49.67
2023-01-29T06:40:11.676Z,49.45
2023-01-29T06:42:40.205Z,51.00
2023-01-29T06:45:12.124Z,47.65
2023-01-29T06:47:41.268Z,48.83
2023-01-29T06:50:10.886Z,49.92
2023-01-29T06:52:39.135Z,50.95
2023-01-29T06:55:08.070Z,58.38
2023-01-29T06:57:36.090Z,50.10
2023-01-29T07:00:06.370Z,52.42
2023-01-29T07:02:36.158Z,48.75
2023-01-29T07:05:05.380Z,63.13
2023-01-29T07:07:36.814Z,51.97
2023-01-29T07:10:05.525Z,52.08
2023-01-29T07:12:33.552Z,58.38
2023-01-29T07:15:01.512Z,53.50
2023-01-29T07:17:29.572Z,60.90
2023-01-29T07:19:58.961Z,54.35
2023-01-29T07:22:27.308Z,55.35
2023-01-29T07:24:55.575Z,58.00
2023-01-29T07:27:24.234Z,53.33
2023-01-29T07:29:52.569Z,57.70
2023-01-29T07:32:20.649Z,50.75
2023-01-29T07:34:48.871Z,55.80
2023-01-29T07:37:18.475Z,60.28
2023-01-29T07:39:47.710Z,57.10
2023-01-29T07:42:17.002Z,56.97
2023-01-29T07:44:44.993Z,60.28
2023-01-29T07:47:15.217Z,47.38
2023-01-29T07:49:44.971Z,55.10
2023-01-29T07:52:13.244Z,57.67
2023-01-29T07:54:45.012Z,55.22
2023-01-29T07:57:14.928Z,62.35
2023-01-29T07:59:45.182Z,52.45
2023-01-29T08:02:13.363Z,59.13
2023-01-29T08:04:41.609Z,58.35
2023-01-29T08:07:10.214Z,55.25
2023-01-29T08:09:39.346Z,56.65
2023-01-29T08:12:09.176Z,64.00
2023-01-29T08:14:37.477Z,48.75
2023-01-29T08:17:05.551Z,53.05
2023-01-29T08:19:33.664Z,53.25
2023-01-29T08:22:03.784Z,55.05
2023-01-29T08:24:47.377Z,47.55
2023-01-29T08:27:21.918Z,50.58
2023-01-29T08:29:50.040Z,56.60
2023-01-29T08:32:18.085Z,51.90
2023-01-29T08:34:46.334Z,52.67
2023-01-29T08:37:14.302Z,47.95
2023-01-29T08:42:15.363Z,62.40
2023-01-29T08:44:44.778Z,49.72
2023-01-29T08:47:12.854Z,48.65
2023-01-29T08:49:40.813Z,52.90
2023-01-29T08:52:08.949Z,46.33
2023-01-29T08:54:39.006Z,56.15
2023-01-29T08:57:07.178Z,45.08
2023-01-29T08:59:35.161Z,47.95
2023-01-29T09:02:04.634Z,42.03
2023-01-29T09:04:32.668Z,48.80
2023-01-29T09:07:04.143Z,41.13
2023-01-29T09:09:33.236Z,41.00
2023-01-29T09:12:01.325Z,45.15
2023-01-29T09:14:29.485Z,40.15
2023-01-29T09:16:58.487Z,38.15
2023-01-29T09:19:28.427Z,39.33
2023-01-29T09:21:56.548Z,36.75
2023-01-29T09:24:24.687Z,37.35
2023-01-29T09:26:52.867Z,37.05
2023-01-29T09:29:21.436Z,39.15
2023-01-29T09:31:49.711Z,33.05
2023-01-29T09:34:17.901Z,34.03
2023-01-29T09:36:47.600Z,34.83
2023-01-29T09:39:15.557Z,34.97
2023-01-29T09:41:51.635Z,30.63
2023-01-29T09:44:25.408Z,32.10
2023-01-29T09:46:53.930Z,34.15
2023-01-29T09:49:26.139Z,36.85
2023-01-29T09:54:31.112Z,36.10
2023-01-29T09:56:59.510Z,30.60
2023-01-29T09:59:30.889Z,31.67
2023-01-29T10:02:07.446Z,20.90
2023-01-29T10:04:46.042Z,25.80
2023-01-29T10:07:34.325Z,29.05
2023-01-29T10:10:16.576Z,24.02
2023-01-29T10:13:02.483Z,26.75
2023-01-29T10:15:43.745Z,22.38
2023-01-29T10:18:31.473Z,26.35
2023-01-29T10:21:07.635Z,28.30
2023-01-29T10:23:39.485Z,23.17
2023-01-29T10:26:11.612Z,22.25
2023-01-29T10:28:46.051Z,22.65
2023-01-29T10:31:20.754Z,23.45
2023-01-29T10:34:02.593Z,25.05
2023-01-29T10:36:35.593Z,24.13
2023-01-29T10:39:05.339Z,22.65
2023-01-29T10:41:53.935Z,23.95
2023-01-29T10:44:32.887Z,21.70
2023-01-29T10:47:11.730Z,25.88
2023-01-29T10:49:55.575Z,20.70
2023-01-29T10:52:33.331Z,25.30
2023-01-29T10:55:10.474Z,20.92
2023-01-29T10:57:53.336Z,21.50
2023-01-29T11:00:24.360Z,24.50
2023-01-29T11:02:53.144Z,25.92
2023-01-29T11:05:26.864Z,22.23
2023-01-29T11:08:05.063Z,22.02
2023-01-29T11:10:41.668Z,21.83
2023-01-29T11:13:14.280Z,24.15
2023-01-29T11:15:42.598Z,23.45
2023-01-29T11:18:16.482Z,22.67
2023-01-29T11:20:45.672Z,23.85
2023-01-29T11:23:28.278Z,23.13
2023-01-29T11:25:59.109Z,25.85
2023-01-29T11:28:38.084Z,25.92
2023-01-29T11:31:17.162Z,21.50
2023-01-29T11:33:47.073Z,23.63
2023-01-29T11:36:23.821Z,20.85
2023-01-29T11:39:10.093Z,23.83
2023-01-29T11:41:46.518Z,24.17
2023-01-29T11:44:20.634Z,27.13
2023-01-29T11:46:49.246Z,20.63
2023-01-29T11:49:24.767Z,25.88
2023-01-29T11:51:54.358Z,23.85
2023-01-29T11:54:27.510Z,24.70
2023-01-29T11:56:57.528Z,27.30
2023-01-29T11:59:44.199Z,27.70
2023-01-29T12:02:24.373Z,23.75
2023-01-29T12:04:52.837Z,24.25
2023-01-29T12:07:21.418Z,25.13
2023-01-29T12:09:54.944Z,26.70
2023-01-29T12:12:39.402Z,28.08
2023-01-29T12:15:19.779Z,27.63
2023-01-29T12:18:02.123Z,22.63
2023-01-29T12:20:34.797Z,26.08
2023-01-29T12:23:09.131Z,27.63
2023-01-29T12:25:47.392Z,25.17
2023-01-29T12:28:33.218Z,27.08
2023-01-29T12:31:21.062Z,24.95
2023-01-29T12:33:53.524Z,24.95
2023-01-29T12:36:26.553Z,27.20
2023-01-29T12:38:56.330Z,25.55
2023-01-29T12:41:34.320Z,25.48
2023-01-29T12:44:08.195Z,26.00
2023-01-29T12:46:41.101Z,29.15
2023-01-29T12:49:14.890Z,27.13
2023-01-29T12:51:50.152Z,28.95
2023-01-29T12:54:22.543Z,27.77
2023-01-29T12:56:53.235Z,27.50
2023-01-29T12:59:29.205Z,24.63
2023-01-29T13:02:00.742Z,28.17
2023-01-29T13:04:36.616Z,24.93
2023-01-29T13:07:12.978Z,28.40
2023-01-29T13:09:45.378Z,23.38
2023-01-29T13:12:16.388Z,28.40
2023-01-29T13:14:49.089Z,25.80
2023-01-29T13:17:24.486Z,29.15
2023-01-29T13:19:54.689Z,25.58
2023-01-29T13:22:26.146Z,28.23
2023-01-29T13:25:04.147Z,24.67
2023-01-29T13:27:35.167Z,27.02
2023-01-29T13:30:06.486Z,27.35
2023-01-29T13:32:37.329Z,28.57
2023-01-29T13:35:13.563Z,30.40
2023-01-29T13:37:43.758Z,30.77
2023-01-29T13:40:21.068Z,32.30
2023-01-29T13:42:50.220Z,33.08
2023-01-29T13:45:22.266Z,32.92
2023-01-29T13:47:51.786Z,36.65
2023-01-29T13:50:22.721Z,37.75
2023-01-29T13:52:55.273Z,38.25
2023-01-29T13:55:31.439Z,39.15
2023-01-29T13:58:00.789Z,38.63
2023-01-29T14:01:01.484Z,37.67
2023-01-29T14:04:04.562Z,39.30
2023-01-29T14:06:47.873Z,38.20
2023-01-29T14:09:57.064Z,40.78
2023-01-29T14:12:44.194Z,40.05
2023-01-29T14:15:21.179Z,43.25
2023-01-29T14:18:13.774Z,42.53
2023-01-29T14:20:55.237Z,42.85
2023-01-29T14:23:46.809Z,41.40
2023-01-29T14:26:25.676Z,47.88
2023-01-29T14:28:57.644Z,42.47
2023-01-29T14:31:45.900Z,44.15
2023-01-29T14:34:21.177Z,41.88
2023-01-29T14:36:55.366Z,47.63
2023-01-29T14:39:31.966Z,47.47
2023-01-29T14:42:00.961Z,48.25
2023-01-29T14:44:50.263Z,44.85
2023-01-29T14:47:20.236Z,40.55
2023-01-29T14:49:54.220Z,44.33
2023-01-29T14:52:27.676Z,48.40
2023-01-29T14:55:01.682Z,43.42
2023-01-29T14:57:31.441Z,41.25
2023-01-29T15:00:05.329Z,44.13
2023-01-29T15:02:39.402Z,38.78
2023-01-29T15:05:13.202Z,45.90
2023-01-29T15:07:48.085Z,45.25
2023-01-29T15:10:22.685Z,46.85
2023-01-29T15:12:54.124Z,46.55
2023-01-29T15:15:29.098Z,44.17
2023-01-29T15:18:00.090Z,47.33
2023-01-29T15:20:32.069Z,51.55
2023-01-29T15:23:03.156Z,50.67
2023-01-29T15:25:36.310Z,46.35
2023-01-29T15:28:08.556Z,51.58
2023-01-29T15:30:39.854Z,48.70
2023-01-29T15:33:10.436Z,48.08
2023-01-29T15:35:42.324Z,48.63
2023-01-29T15:38:16.865Z,55.22
2023-01-29T15:40:54.291Z,48.72
2023-01-29T15:43:24.897Z,52.10
2023-01-29T15:45:55.577Z,52.55
2023-01-29T15:48:32.874Z,54.97
2023-01-29T15:51:05.146Z,45.30
2023-01-29T15:56:03.385Z,50.30
2023-01-29T15:58:32.581Z,54.80
2023-01-29T16:01:02.301Z,42.78
2023-01-29T16:03:32.820Z,48.30
2023-01-29T16:06:03.806Z,43.38
2023-01-29T16:08:32.137Z,45.90
2023-01-29T16:11:02.076Z,45.10
2023-01-29T16:13:31.666Z,45.92
2023-01-29T16:16:02.869Z,40.95
2023-01-29T16:18:34.518Z,52.07
2023-01-29T16:21:08.807Z,48.85
2023-01-29T16:23:41.869Z,46.00
2023-01-29T16:26:14.780Z,39.40
2023-01-29T16:28:44.903Z,43.05
2023-01-29T16:31:14.249Z,47.70
2023-01-29T16:33:45.544Z,36.40
2023-01-29T16:36:19.664Z,43.63
2023-01-29T16:38:50.158Z,39.47
2023-01-29T16:41:30.955Z,42.30
2023-01-29T16:44:00.693Z,37.78
2023-01-29T16:46:34.715Z,40.50
2023-01-29T16:49:04.308Z,38.92
2023-01-29T16:51:38.676Z,40.88
2023-01-29T16:54:10.874Z,41.03
2023-01-29T16:59:08.505Z,36.40
2023-01-29T17:01:37.321Z,34.25
2023-01-29T17:04:10.210Z,36.10
2023-01-29T17:06:42.078Z,37.22
2023-01-29T17:09:22.864Z,39.15
2023-01-29T17:11:56.028Z,37.45
2023-01-29T17:14:26.099Z,36.85
2023-01-29T17:16:57.147Z,40.30
2023-01-29T17:19:26.001Z,35.08
2023-01-29T17:21:57.009Z,39.72
2023-01-29T17:24:25.217Z,42.88
2023-01-29T17:26:53.533Z,31.13
2023-01-29T17:29:24.792Z,34.88
2023-01-29T17:31:53.077Z,36.30
2023-01-29T17:34:21.317Z,38.15
2023-01-29T17:36:49.425Z,36.90
2023-01-29T17:39:20.887Z,38.78
2023-01-29T17:41:51.531Z,30.02
2023-01-29T17:44:20.005Z,35.42
2023-01-29T17:46:48.692Z,33.72
2023-01-29T17:49:23.341Z,32.53
2023-01-29T17:51:52.741Z,31.33
2023-01-29T17:54:25.633Z,34.78
2023-01-29T17:56:54.510Z,36.17
2023-01-29T17:59:24.493Z,35.67
2023-01-29T18:01:53.457Z,35.28
2023-01-29T18:04:21.775Z,36.63
2023-01-29T18:06:51.711Z,33.97
2023-01-29T18:09:22.343Z,34.05
2023-01-29T18:11:53.400Z,33.13
2023-01-29T18:14:22.027Z,32.05
2023-01-29T18:16:50.227Z,35.45
2023-01-29T18:19:22.089Z,35.05
2023-01-29T18:21:51.162Z,31.10
2023-01-29T18:24:20.437Z,32.28
2023-01-29T18:26:51.599Z,32.50
2023-01-29T18:29:19.651Z,33.63
2023-01-29T18:31:49.422Z,31.08
2023-01-29T18:34:18.783Z,29.20
2023-01-29T18:36:47.923Z,29.70
2023-01-29T18:39:16.146Z,30.67
2023-01-29T18:41:44.839Z,27.45
2023-01-29T18:44:14.620Z,31.90
2023-01-29T18:46:42.811Z,29.48
2023-01-29T18:49:11.686Z,29.98
2023-01-29T18:51:42.450Z,29.42
2023-01-29T18:54:13.113Z,28.13
2023-01-29T18:57:11.615Z,29.35
2023-01-29T18:59:31.169Z,32.33
2023-01-29T19:02:00.972Z,28.73
2023-01-29T19:04:29.823Z,28.65
2023-01-29T19:06:58.590Z,33.92
2023-01-29T19:09:27.156Z,32.08
2023-01-29T19:11:56.329Z,33.22
2023-01-29T19:14:24.512Z,27.52
2023-01-29T19:16:53.836Z,28.25
2023-01-29T19:19:23.323Z,27.63
2023-01-29T19:21:53.466Z,27.40
2023-01-29T19:24:22.086Z,25.65
2023-01-29T19:26:51.843Z,25.35
2023-01-29T19:29:20.365Z,28.73
2023-01-29T19:31:48.961Z,24.75
2023-01-29T19:34:22.548Z,24.80
2023-01-29T19:36:50.632Z,20.95
2023-01-29T19:39:19.322Z,20.60
2023-01-29T19:41:49.459Z,21.52
2023-01-29T19:44:18.132Z,20.45
2023-01-29T19:46:47.192Z,18.80
2023-01-29T19:49:15.377Z,18.30
2023-01-29T19:51:48.983Z,18.67
2023-01-29T19:54:17.558Z,20.77
2023-01-29T19:56:47.393Z,19.02
2023-01-29T19:59:15.896Z,20.13
2023-01-29T20:01:44.134Z,17.10
2023-01-29T20:04:12.347Z,18.27
2023-01-29T20:06:40.599Z,18.27
2023-01-29T20:09:10.377Z,18.00
2023-01-29T20:11:38.742Z,15.98
2023-01-29T20:14:06.777Z,17.63
2023-01-29T20:16:36.954Z,18.48
2023-01-29T20:19:14.051Z,19.75
2023-01-29T20:21:45.828Z,19.27
2023-01-29T20:24:15.483Z,16.88
2023-01-29T20:26:45.189Z,24.42
2023-01-29T20:29:18.528Z,19.45
2023-01-29T20:31:47.361Z,19.63
2023-01-29T20:34:16.080Z,18.83
2023-01-29T20:36:53.568Z,15.60
2023-01-29T20:39:22.915Z,19.83
2023-01-29T20:41:51.066Z,17.05
2023-01-29T20:44:20.406Z,18.63
2023-01-29T20:46:48.716Z,16.20
2023-01-29T20:49:17.252Z,18.00
2023-01-29T20:51:45.720Z,17.35
2023-01-29T20:54:14.095Z,18.48
2023-01-29T20:56:47.959Z,17.52
2023-01-29T20:59:17.702Z,18.08
2023-01-29T21:01:47.758Z,18.52
2023-01-29T21:04:15.864Z,20.65
2023-01-29T21:06:45.808Z,18.17
2023-01-29T21:09:13.914Z,17.73
2023-01-29T21:11:44.923Z,17.90
2023-01-29T21:14:14.917Z,17.58
2023-01-29T21:16:44.105Z,18.60
2023-01-29T21:19:14.423Z,21.70
2023-01-29T21:21:45.767Z,17.27
2023-01-29T21:24:15.228Z,22.35
2023-01-29T21:26:44.885Z,22.55
2023-01-29T21:29:13.526Z,19.00
2023-01-29T21:31:41.672Z,21.90
2023-01-29T21:34:10.529Z,21.20
2023-01-29T21:36:39.935Z,20.33
2023-01-29T21:39:17.405Z,18.10
2023-01-29T21:42:05.305Z,22.48
2023-01-29T21:44:33.933Z,18.27
2023-01-29T21:47:12.302Z,20.38
2023-01-29T21:49:42.702Z,21.13
2023-01-29T21:52:12.954Z,23.48
2023-01-29T21:54:41.789Z,18.35
2023-01-29T21:57:14.962Z,18.13
2023-01-29T21:59:43.521Z,19.85
2023-01-29T22:02:16.649Z,18.83
2023-01-29T22:04:45.127Z,21.30
2023-01-29T22:07:13.978Z,21.17
2023-01-29T22:09:42.229Z,17.63
2023-01-29T22:12:12.036Z,20.63
2023-01-29T22:14:41.702Z,20.10
2023-01-29T22:17:10.643Z,23.23
2023-01-29T22:19:38.979Z,18.17
2023-01-29T22:22:07.768Z,19.10
2023-01-29T22:24:36.021Z,18.48
2023-01-29T22:27:04.148Z,17.33
2023-01-29T22:29:33.739Z,18.80
2023-01-29T22:32:03.195Z,20.10
2023-01-29T22:34:31.236Z,18.50
2023-01-29T22:36:59.259Z,18.67
2023-01-29T22:39:27.508Z,18.45
2023-01-29T22:41:55.609Z,16.48
2023-01-29T22:44:23.606Z,17.90
2023-01-29T22:46:53.310Z,19.20
2023-01-29T22:49:23.730Z,18.42
2023-01-29T22:52:09.999Z,18.58
2023-01-29T22:54:39.640Z,21.38
2023-01-29T22:57:10.228Z,15.93
2023-01-29T22:59:38.452Z,17.33
2023-01-29T23:02:08.827Z,18.75
2023-01-29T23:04:37.092Z,22.52
2023-01-29T23:07:05.407Z,18.60
2023-01-29T23:09:34.119Z,17.02
2023-01-29T23:12:02.496Z,20.15
2023-01-29T23:14:30.493Z,18.52
2023-01-29T23:16:58.547Z,23.88
2023-01-29T23:19:27.935Z,19.52
2023-01-29T23:21:55.957Z,17.40
2023-01-29T23:24:26.313Z,18.33
2023-01-29T23:27:13.257Z,17.20
2023-01-29T23:29:41.981Z,25.20
2023-01-29T23:32:10.297Z,20.25
2023-01-29T23:34:40.581Z,20.45
2023-01-29T23:37:09.208Z,21.13
2023-01-29T23:39:38.737Z,23.60
2023-01-29T23:42:06.934Z,19.80
2023-01-29T23:44:36.820Z,22.00
2023-01-29T23:47:05.022Z,19.23
2023-01-29T23:49:33.174Z,18.63
2023-01-29T23:52:03.152Z,23.58
2023-01-29T23:54:31.435Z,23.42
2023-01-29T23:56:59.413Z,19.92
2023-01-29T23:59:28.284Z,22.85
